Time;durP1;ratioP1;P1;durP2;ratioP2;P2;SDS_P1;SDS_P2;PMS_P1;PMS_P2;Temp;Humidity;BMP_temperature;BMP_pressure;BME280_temperature;BME280_humidity;BME280_pressure;Samples;Min_cycle;Max_cycle;Signal;HPM_P1;HPM_P2
2021/05/22 00:00:18;;;;;;;10.48;7.47;;;;;;;12.59;65.66;94957.41;2958484;40;20064;-81
2021/05/22 00:02:20;;;;;;;19.33;8.18;;;;;;;12.59;65.30;94944.28;2954067;40;20085;-82
2021/05/22 00:04:21;;;;;;;11.20;7.70;;;;;;;12.64;65.05;94947.22;2962461;40;20053;-82
2021/05/22 00:06:23;;;;;;;10.13;7.25;;;;;;;12.64;65.26;94942.78;2963105;40;20339;-81
2021/05/22 00:08:25;;;;;;;10.68;7.45;;;;;;;12.62;65.55;94939.50;2954189;40;20347;-71
2021/05/22 00:10:27;;;;;;;14.13;7.63;;;;;;;12.60;65.27;94944.09;2958545;40;20059;-69
2021/05/22 00:12:29;;;;;;;10.48;7.05;;;;;;;12.57;65.31;94941.00;2948575;40;20054;-73
2021/05/22 00:14:32;;;;;;;10.27;7.43;;;;;;;12.54;65.73;94936.88;2954228;40;20100;-70
2021/05/22 00:16:34;;;;;;;13.30;7.93;;;;;;;12.49;65.96;94933.91;2957135;40;20444;-70
2021/05/22 00:18:36;;;;;;;11.38;7.47;;;;;;;12.49;65.99;94933.91;2952593;40;20060;-70
2021/05/22 00:20:38;;;;;;;9.50;7.65;;;;;;;12.51;65.62;94929.31;2952456;40;20064;-68
2021/05/22 00:22:41;;;;;;;13.98;7.43;;;;;;;12.45;66.25;94929.97;2951509;40;20471;-69
2021/05/22 00:24:43;;;;;;;9.20;7.10;;;;;;;12.39;66.66;94931.47;2958084;40;20068;-69
2021/05/22 00:26:44;;;;;;;11.02;7.18;;;;;;;12.39;66.43;94925.38;2958439;40;20079;-69
2021/05/22 00:28:46;;;;;;;16.73;8.32;;;;;;;12.40;66.63;94927.84;2957840;40;20063;-69
2021/05/22 00:30:48;;;;;;;10.73;6.75;;;;;;;12.39;66.23;94925.38;2949188;40;20073;-70
2021/05/22 00:32:50;;;;;;;9.27;6.57;;;;;;;12.38;66.39;94927.19;2959050;40;20403;-68
2021/05/22 00:34:52;;;;;;;9.18;6.75;;;;;;;12.37;66.45;94930.81;2958468;40;20154;-68
2021/05/22 00:36:53;;;;;;;9.27;6.70;;;;;;;12.34;66.33;94923.25;2959118;40;20056;-69
2021/05/22 00:38:55;;;;;;;12.43;6.53;;;;;;;12.33;66.17;94932.13;2959600;40;20151;-71
2021/05/22 00:40:57;;;;;;;10.68;6.45;;;;;;;12.32;66.24;94927.03;2959240;40;20088;-71
2021/05/22 00:42:58;;;;;;;11.32;6.03;;;;;;;12.28;66.08;94931.78;2959625;40;20059;-71
2021/05/22 00:45:19;;;;;;;10.20;6.53;;;;;;;12.29;66.28;94929.00;2959746;40;20049;-69
2021/05/22 00:47:21;;;;;;;10.80;6.45;;;;;;;12.27;66.46;94917.84;2957386;40;20068;-70
2021/05/22 00:49:23;;;;;;;11.90;7.55;;;;;;;12.28;66.11;94919.50;2959350;40;20379;-70
2021/05/22 00:51:24;;;;;;;9.57;6.97;;;;;;;12.26;66.49;94924.09;2959387;40;20083;-70
2021/05/22 00:53:26;;;;;;;12.07;6.90;;;;;;;12.30;65.96;94924.56;2958390;40;20086;-69
2021/05/22 00:55:28;;;;;;;10.45;6.10;;;;;;;12.30;65.79;94924.56;2959657;40;20064;-71
2021/05/22 00:57:31;;;;;;;10.50;6.57;;;;;;;12.24;65.83;94918.16;2957754;40;20076;-70
2021/05/22 00:59:32;;;;;;;9.32;6.45;;;;;;;12.27;65.25;94920.47;2957451;40;20045;-69
2021/05/22 01:01:34;;;;;;;11.55;6.45;;;;;;;12.21;65.43;94920.28;2958717;40;20318;-69
2021/05/22 01:03:42;;;;;;;10.05;6.07;;;;;;;12.20;65.76;94908.16;2957509;40;20060;-69
2021/05/22 01:05:45;;;;;;;8.63;6.30;;;;;;;12.16;65.56;94910.28;2944571;40;20050;-70
2021/05/22 01:07:48;;;;;;;14.23;6.30;;;;;;;12.13;65.86;94901.91;2948741;40;20081;-69
2021/05/22 01:09:52;;;;;;;10.40;7.03;;;;;;;12.02;66.23;94905.66;2952435;40;20134;-70
2021/05/22 01:11:55;;;;;;;9.38;6.53;;;;;;;11.97;66.46;94910.59;2958922;40;20110;-69
2021/05/22 01:14:08;;;;;;;9.85;7.35;;;;;;;11.93;66.70;94912.72;2959207;40;20057;-69
2021/05/22 01:16:11;;;;;;;12.20;7.03;;;;;;;12.00;66.45;94921.59;2958586;40;20052;-70
2021/05/22 01:18:13;;;;;;;8.07;6.72;;;;;;;12.00;66.66;94915.50;2952891;40;20124;-70
2021/05/22 01:20:33;;;;;;;9.85;6.88;;;;;;;11.95;66.58;94913.38;2958071;40;20080;-69
2021/05/22 01:22:39;;;;;;;10.48;5.53;;;;;;;11.80;66.18;94918.41;2959465;40;20079;-69
2021/05/22 01:24:52;;;;;;;8.27;5.30;;;;;;;11.47;66.58;94914.88;2958192;40;20064;-69
2021/05/22 01:26:53;;;;;;;8.10;4.80;;;;;;;11.37;67.42;94911.56;2957951;40;20057;-70
2021/05/22 01:28:57;;;;;;;10.65;5.68;;;;;;;11.20;67.68;94913.28;2958278;40;20049;-69
2021/05/22 01:30:59;;;;;;;;;;;;;;;10.63;70.56;94913.81;2958359;40;20112;-69
2021/05/22 01:33:02;;;;;;;10.82;6.03;;;;;;;10.66;70.40;94913.50;2959232;40;20022;-80
2021/05/22 01:35:04;;;;;;;19.38;7.20;;;;;;;10.72;70.36;94919.94;2960506;40;20141;-81
2021/05/22 01:37:06;;;;;;;9.82;6.63;;;;;;;10.68;70.62;94922.03;2959348;40;20158;-81
2021/05/22 01:39:08;;;;;;;10.13;6.72;;;;;;;10.79;70.48;94918.34;2958310;40;20076;-67
2021/05/22 01:41:09;;;;;;;12.68;6.47;;;;;;;10.90;69.86;94923.31;2957942;40;20608;-69
2021/05/22 01:43:12;;;;;;;10.50;7.72;;;;;;;10.93;69.79;94916.97;2958852;40;20064;-69
2021/05/22 01:45:17;;;;;;;10.25;6.93;;;;;;;11.05;69.48;94916.50;2955380;40;20159;-69
2021/05/22 01:47:19;;;;;;;11.55;6.82;;;;;;;11.18;68.47;94917.88;2955165;40;20341;-69
2021/05/22 01:49:25;;;;;;;14.00;8.38;;;;;;;11.28;68.41;94919.41;2958132;40;20107;-69
2021/05/22 01:51:28;;;;;;;11.23;7.22;;;;;;;11.34;67.93;94923.19;2957755;40;20433;-68
2021/05/22 01:53:30;;;;;;;11.95;7.40;;;;;;;11.41;67.91;94920.75;2958652;40;20076;-71
2021/05/22 01:55:32;;;;;;;13.38;7.97;;;;;;;11.48;67.87;94919.94;2956046;40;20369;-69
2021/05/22 01:57:34;;;;;;;13.02;7.70;;;;;;;11.54;67.57;94917.69;2958566;40;20089;-69
2021/05/22 01:59:36;;;;;;;9.35;7.50;;;;;;;11.53;67.50;94919.50;2958712;40;20064;-68
2021/05/22 02:01:38;;;;;;;9.57;7.15;;;;;;;11.54;67.61;94926.38;2957249;40;20457;-69
2021/05/22 02:03:46;;;;;;;11.13;7.47;;;;;;;11.56;67.43;94924.41;2958648;40;20056;-69
2021/05/22 02:05:49;;;;;;;11.05;7.25;;;;;;;11.57;67.55;94920.81;2958068;40;20067;-69
2021/05/22 02:07:52;;;;;;;14.07;7.45;;;;;;;11.53;67.77;94922.13;2957868;40;20169;-69
2021/05/22 02:09:55;;;;;;;12.90;7.30;;;;;;;11.50;68.09;94913.75;2949884;40;20061;-68
2021/05/22 02:11:57;;;;;;;11.70;8.52;;;;;;;11.46;68.17;94906.19;2952786;40;20181;-68
2021/05/22 02:14:02;;;;;;;12.75;8.27;;;;;;;11.43;68.24;94909.13;2957875;40;20183;-69
2021/05/22 02:16:05;;;;;;;10.90;7.75;;;;;;;11.43;68.25;94911.75;2957110;40;20087;-69
2021/05/22 02:18:09;;;;;;;10.07;7.55;;;;;;;11.45;68.36;94904.53;2958851;40;20064;-81
2021/05/22 02:20:14;;;;;;;10.10;7.50;;;;;;;11.43;68.21;94890.75;2958489;40;20049;-81
2021/05/22 02:22:21;;;;;;;10.15;7.05;;;;;;;11.46;67.76;94893.09;2958912;40;20058;-80
2021/05/22 02:24:26;;;;;;;10.57;7.15;;;;;;;11.48;67.34;94898.97;2960117;40;20057;-81
2021/05/22 02:26:28;;;;;;;8.38;6.85;;;;;;;11.46;67.49;94900.94;2957939;40;20053;-79
2021/05/22 02:28:34;;;;;;;9.32;6.70;;;;;;;11.51;67.24;94899.63;2958335;40;20090;-70
2021/05/22 02:30:40;;;;;;;10.55;7.55;;;;;;;11.32;68.56;94893.69;2949628;40;20434;-70
2021/05/22 02:32:44;;;;;;;15.80;7.15;;;;;;;11.31;68.84;94897.28;2941949;40;20081;-71
2021/05/22 02:34:52;;;;;;;8.93;6.32;;;;;;;11.27;69.08;94898.56;2955577;40;20041;-69
2021/05/22 02:36:54;;;;;;;8.85;6.93;;;;;;;11.28;68.89;94902.84;2957534;40;20066;-69
2021/05/22 02:38:57;;;;;;;8.77;7.30;;;;;;;11.36;68.48;94910.75;2957879;40;20085;-69
2021/05/22 02:41:02;;;;;;;9.43;6.78;;;;;;;11.35;68.28;94903.84;2958449;40;20459;-70
2021/05/22 02:43:09;;;;;;;8.65;6.78;;;;;;;11.35;68.50;94901.22;2957658;40;20076;-69
2021/05/22 02:45:11;;;;;;;9.23;7.28;;;;;;;11.36;68.31;94905.50;2953140;40;20065;-69
2021/05/22 02:47:13;;;;;;;12.05;7.65;;;;;;;11.37;68.42;94907.13;2955925;40;20049;-69
2021/05/22 02:49:18;;;;;;;12.15;6.75;;;;;;;11.40;68.26;94906.84;2956512;40;20084;-69
2021/05/22 02:51:22;;;;;;;9.30;6.65;;;;;;;11.45;68.19;94908.97;2956889;40;20331;-70
2021/05/22 02:53:26;;;;;;;11.43;7.15;;;;;;;11.40;68.04;94906.84;2952982;40;20446;-70
2021/05/22 02:55:28;;;;;;;8.40;6.65;;;;;;;11.33;67.98;94916.28;2949844;40;20053;-70
2021/05/22 02:57:30;;;;;;;7.10;5.53;;;;;;;11.26;67.88;94916.09;2957355;40;20108;-71
2021/05/22 02:59:32;;;;;;;8.52;5.65;;;;;;;11.24;67.55;94923.31;2949189;40;20066;-70
2021/05/22 03:01:34;;;;;;;8.80;5.43;;;;;;;11.27;67.41;94920.38;2952440;40;20330;-71
2021/05/22 03:03:37;;;;;;;8.60;4.75;;;;;;;11.27;67.19;94916.91;2957825;40;20057;-70
2021/05/22 03:05:40;;;;;;;8.13;5.05;;;;;;;11.30;66.75;94923.69;2958686;40;20045;-70
2021/05/22 03:07:44;;;;;;;;;;;;;;;11.27;67.11;94914.28;2957645;40;20490;-69
2021/05/22 03:09:46;;;;;;;10.93;5.03;;;;;;;11.21;67.30;94918.41;2958687;40;19959;-83
2021/05/22 03:11:48;;;;;;;8.60;5.88;;;;;;;11.19;67.21;94920.34;2958223;40;20056;-81
2021/05/22 03:13:49;;;;;;;7.63;5.03;;;;;;;11.22;67.22;94919.22;2959599;40;20417;-81
2021/05/22 03:15:51;;;;;;;9.95;5.07;;;;;;;11.23;66.73;94919.06;2964083;40;20060;-82
2021/05/22 03:17:53;;;;;;;9.02;5.00;;;;;;;11.31;66.96;94925.31;2959190;40;20067;-69
2021/05/22 03:19:55;;;;;;;7.85;4.93;;;;;;;11.24;66.98;94928.56;2958195;40;20084;-69
2021/05/22 03:21:56;;;;;;;6.85;4.90;;;;;;;11.29;66.59;94946.44;2959000;40;20143;-69
2021/05/22 03:23:58;;;;;;;11.20;5.90;;;;;;;11.33;66.51;94953.00;2958402;40;20076;-69
2021/05/22 03:26:00;;;;;;;11.00;5.47;;;;;;;11.36;66.92;94950.09;2952378;40;20046;-69
2021/05/22 03:28:02;;;;;;;6.97;5.18;;;;;;;11.38;66.61;94955.16;2955468;40;20089;-70
2021/05/22 03:30:06;;;;;;;7.28;4.75;;;;;;;11.41;66.16;94958.31;2944833;40;20058;-70
2021/05/22 03:32:08;;;;;;;6.20;4.65;;;;;;;11.45;65.67;94967.50;2957926;40;20064;-70
2021/05/22 03:34:10;;;;;;;6.38;4.80;;;;;;;11.46;65.21;94966.53;2956974;40;20068;-71
2021/05/22 03:36:12;;;;;;;6.57;4.47;;;;;;;11.46;65.59;94957.81;2958420;40;20072;-70
2021/05/22 03:38:14;;;;;;;7.35;4.82;;;;;;;11.43;65.14;94955.53;2957575;40;20411;-69
2021/05/22 03:40:16;;;;;;;10.85;4.57;;;;;;;11.50;65.01;94960.97;2957672;40;20049;-70
2021/05/22 03:42:18;;;;;;;7.38;4.57;;;;;;;11.47;65.13;94965.53;2958572;40;20097;-70
2021/05/22 03:44:19;;;;;;;7.22;5.13;;;;;;;11.51;65.11;94975.72;2958711;40;20061;-71
2021/05/22 03:46:21;;;;;;;8.00;4.30;;;;;;;11.55;64.98;94974.41;2957735;40;20071;-70
2021/05/22 03:48:23;;;;;;;10.57;4.32;;;;;;;11.58;64.81;94988.06;2958500;40;20065;-69
2021/05/22 03:50:25;;;;;;;7.35;4.50;;;;;;;11.59;64.01;94981.00;2948977;40;20053;-70
2021/05/22 03:52:27;;;;;;;4.90;3.97;;;;;;;11.64;63.82;94992.66;2941274;40;20065;-70
2021/05/22 03:54:29;;;;;;;6.57;4.80;;;;;;;11.65;64.24;94993.50;2957905;40;20458;-69
2021/05/22 03:56:31;;;;;;;7.95;4.95;;;;;;;11.71;64.33;94990.22;2955005;40;20053;-70
2021/05/22 03:58:33;;;;;;;14.10;5.10;;;;;;;11.66;64.62;94995.97;2957829;40;20057;-69
2021/05/22 04:00:35;;;;;;;6.47;4.68;;;;;;;11.59;64.75;94989.69;2958421;40;20084;-72
2021/05/22 04:02:36;;;;;;;6.13;4.47;;;;;;;11.43;65.57;94989.63;2959572;40;20087;-82
2021/05/22 04:04:38;;;;;;;22.50;6.28;;;;;;;11.46;65.50;94991.94;2960251;40;20100;-81
2021/05/22 04:06:40;;;;;;;8.07;5.20;;;;;;;11.60;65.07;94980.03;2962654;40;20090;-82
2021/05/22 04:08:42;;;;;;;8.38;5.25;;;;;;;11.76;65.00;94974.81;2961846;40;20097;-85
2021/05/22 04:10:44;;;;;;;7.93;5.53;;;;;;;11.90;64.39;94970.00;2951805;40;20086;-83
2021/05/22 04:12:46;;;;;;;8.52;5.07;;;;;;;11.95;64.35;94965.88;2961275;40;20349;-82
2021/05/22 04:14:47;;;;;;;11.30;6.00;;;;;;;12.10;64.14;94973.97;2958842;40;20126;-70
2021/05/22 04:16:49;;;;;;;7.18;5.57;;;;;;;12.18;64.13;94963.47;2959034;40;20088;-71
2021/05/22 04:18:51;;;;;;;7.65;5.55;;;;;;;12.38;63.79;94965.78;2958174;40;20409;-71
2021/05/22 04:20:52;;;;;;;8.02;5.75;;;;;;;12.46;63.42;94961.34;2956198;40;20057;-70
2021/05/22 04:22:54;;;;;;;8.02;5.53;;;;;;;12.57;63.06;94962.00;2956340;40;20053;-68
2021/05/22 04:24:56;;;;;;;10.02;5.68;;;;;;;12.61;63.07;94958.88;2958500;40;20061;-71
2021/05/22 04:26:58;;;;;;;6.70;5.25;;;;;;;12.66;63.03;94964.47;2954250;40;20096;-69
2021/05/22 04:28:59;;;;;;;9.45;5.50;;;;;;;12.45;63.55;94972.00;2957640;40;20080;-71
2021/05/22 04:31:01;;;;;;;9.80;5.55;;;;;;;12.22;63.88;94971.84;2959154;40;20065;-81
2021/05/22 04:33:03;;;;;;;8.75;6.00;;;;;;;12.25;64.19;94959.19;2958403;40;20056;-82
2021/05/22 04:35:06;;;;;;;8.85;5.75;;;;;;;12.30;64.19;94969.22;2958601;40;20053;-81
2021/05/22 04:37:08;;;;;;;11.50;6.25;;;;;;;12.39;64.49;94968.25;2959057;40;20122;-83
2021/05/22 04:39:09;;;;;;;13.18;5.97;;;;;;;12.50;64.29;94973.19;2955500;40;20479;-83
2021/05/22 04:41:11;;;;;;;11.82;5.95;;;;;;;12.59;64.06;94967.94;2954550;40;20101;-83
2021/05/22 04:43:13;;;;;;;8.38;6.63;;;;;;;12.66;64.16;94968.91;2955325;40;20085;-83
2021/05/22 04:45:15;;;;;;;11.43;6.57;;;;;;;12.73;63.97;94966.44;2961326;40;20495;-83
2021/05/22 04:47:16;;;;;;;7.75;6.10;;;;;;;12.84;63.59;94968.72;2961903;40;20049;-83
2021/05/22 04:49:18;;;;;;;11.05;6.38;;;;;;;12.91;63.17;94981.03;2956208;40;20104;-82
2021/05/22 04:51:21;;;;;;;11.23;6.22;;;;;;;12.93;63.50;94978.25;2962245;40;20057;-81
2021/05/22 04:53:23;;;;;;;8.88;6.18;;;;;;;12.96;63.28;94983.16;2961566;40;20060;-84
2021/05/22 04:55:26;;;;;;;8.63;6.75;;;;;;;13.00;63.24;94994.19;2961587;40;20052;-82
2021/05/22 04:57:27;;;;;;;8.30;6.70;;;;;;;13.09;62.68;94994.00;2961482;40;20060;-83
2021/05/22 04:59:29;;;;;;;11.88;6.70;;;;;;;13.16;63.16;94988.88;2958167;40;20041;-82
2021/05/22 05:01:31;;;;;;;11.35;7.78;;;;;;;13.19;62.94;94993.81;2961216;40;20064;-84
2021/05/22 05:03:33;;;;;;;9.43;7.18;;;;;;;13.19;62.81;94993.00;2960985;40;20040;-84
2021/05/22 05:05:35;;;;;;;13.52;7.28;;;;;;;13.24;62.71;94996.75;2960308;40;20033;-84
2021/05/22 05:07:39;;;;;;;10.45;7.90;;;;;;;13.25;62.64;95000.19;2961386;40;20061;-84
2021/05/22 05:09:42;;;;;;;10.05;7.32;;;;;;;13.29;62.36;95001.53;2960504;40;20134;-85
2021/05/22 05:11:44;;;;;;;10.40;7.45;;;;;;;13.21;62.32;95002.38;2959634;40;20057;-80
2021/05/22 05:13:46;;;;;;;10.32;7.50;;;;;;;13.20;62.45;95002.53;2951241;40;20053;-84
2021/05/22 05:15:48;;;;;;;12.35;8.75;;;;;;;12.96;63.80;95006.03;2957008;40;20193;-81
2021/05/22 05:17:49;;;;;;;10.75;8.10;;;;;;;12.71;64.90;95013.91;2951291;40;20407;-82
2021/05/22 05:19:51;;;;;;;11.63;8.45;;;;;;;12.32;66.29;95016.34;2957283;40;20440;-83
2021/05/22 05:21:53;;;;;;;13.23;9.07;;;;;;;11.95;67.87;95022.81;2960771;40;20048;-84
2021/05/22 05:23:55;;;;;;;15.63;8.32;;;;;;;11.66;68.73;95026.63;2960169;40;20069;-82
2021/05/22 05:25:57;;;;;;;16.02;8.85;;;;;;;11.85;68.44;95025.53;2959372;40;20060;-82
2021/05/22 05:27:59;;;;;;;12.98;8.63;;;;;;;11.96;68.20;95024.47;2963107;40;20183;-81
2021/05/22 05:30:00;;;;;;;13.13;9.20;;;;;;;11.95;68.31;95028.06;2960285;40;20155;-83
2021/05/22 05:32:02;;;;;;;15.70;9.73;;;;;;;12.15;67.71;95041.75;2955511;40;20057;-83
2021/05/22 05:34:04;;;;;;;14.80;8.60;;;;;;;12.37;67.02;95045.56;2950706;40;20338;-83
2021/05/22 05:36:06;;;;;;;12.50;8.48;;;;;;;12.62;66.63;95039.38;2952877;40;20057;-82
2021/05/22 05:38:08;;;;;;;13.85;9.32;;;;;;;12.81;65.88;95043.50;2955312;40;20052;-84
2021/05/22 05:40:10;;;;;;;14.00;8.63;;;;;;;13.02;64.80;95035.09;2960939;40;20076;-82
2021/05/22 05:42:12;;;;;;;14.43;8.60;;;;;;;13.18;64.48;95038.69;2960457;40;20060;-83
2021/05/22 05:44:14;;;;;;;13.00;8.90;;;;;;;13.37;63.79;95038.38;2959973;40;20399;-83
2021/05/22 05:46:15;;;;;;;16.83;9.98;;;;;;;13.51;63.95;95039.50;2960270;40;20408;-82
2021/05/22 05:48:17;;;;;;;13.85;8.07;;;;;;;13.51;63.10;95042.13;2957234;40;20095;-83
2021/05/22 05:50:19;;;;;;;13.43;8.65;;;;;;;13.64;63.11;95033.72;2951705;40;20057;-82
2021/05/22 05:52:21;;;;;;;14.80;8.48;;;;;;;13.83;62.56;95035.94;2957199;40;20522;-82
2021/05/22 05:54:23;;;;;;;9.50;7.53;;;;;;;13.91;61.26;95033.25;2959665;40;20330;-83
2021/05/22 05:56:24;;;;;;;10.13;6.07;;;;;;;13.93;61.01;95031.25;2960220;40;20083;-81
2021/05/22 05:58:26;;;;;;;13.75;6.68;;;;;;;14.11;60.60;95043.38;2959294;40;20405;-83
2021/05/22 06:00:28;;;;;;;9.40;5.85;;;;;;;14.32;60.04;95040.94;2959801;40;20053;-82
2021/05/22 06:02:30;;;;;;;9.02;6.30;;;;;;;14.51;59.30;95044.13;2958285;40;20056;-82
2021/05/22 06:04:33;;;;;;;13.02;7.25;;;;;;;14.54;59.32;95046.44;2960096;40;20056;-80
2021/05/22 06:06:36;;;;;;;10.35;6.78;;;;;;;14.55;59.29;95048.09;2959673;40;20064;-82
2021/05/22 06:08:38;;;;;;;7.25;5.13;;;;;;;14.64;58.84;95054.94;2959714;40;20317;-83
2021/05/22 06:10:40;;;;;;;8.07;6.28;;;;;;;14.80;58.64;95056.69;2964810;40;20048;-83
2021/05/22 06:12:43;;;;;;;7.45;5.93;;;;;;;14.51;58.00;95063.41;2960007;40;20048;-81
2021/05/22 06:14:51;;;;;;;8.13;5.88;;;;;;;14.30;58.97;95061.41;2959090;40;20065;-84
2021/05/22 06:16:53;;;;;;;7.50;4.85;;;;;;;14.24;59.78;95072.63;2960027;40;20133;-85
2021/05/22 06:18:54;;;;;;;7.00;4.95;;;;;;;14.09;59.67;95080.44;2958692;40;20071;-81
2021/05/22 06:20:57;;;;;;;6.80;4.85;;;;;;;14.19;59.60;95076.78;2960672;40;20056;-85
2021/05/22 06:23:00;;;;;;;9.10;5.13;;;;;;;14.25;60.07;95073.44;2961990;40;20138;-70
2021/05/22 06:25:02;;;;;;;5.97;4.60;;;;;;;14.37;59.53;95074.72;2949850;40;20068;-70
2021/05/22 06:27:04;;;;;;;6.25;4.55;;;;;;;14.52;59.28;95078.25;2957106;40;20431;-70
2021/05/22 06:29:06;;;;;;;6.32;4.57;;;;;;;14.48;58.78;95074.31;2953410;40;20105;-70
2021/05/22 06:31:08;;;;;;;7.93;4.95;;;;;;;14.54;59.25;95071.00;2958100;40;20053;-71
2021/05/22 06:33:10;;;;;;;7.43;4.50;;;;;;;14.73;58.63;95066.25;2957348;40;20367;-75
2021/05/22 06:35:11;;;;;;;7.28;4.90;;;;;;;14.86;58.09;95065.69;2958869;40;20280;-72
2021/05/22 06:37:13;;;;;;;5.82;4.70;;;;;;;15.03;57.69;95064.56;2958303;40;20084;-70
2021/05/22 06:39:15;;;;;;;5.55;4.70;;;;;;;15.19;57.21;95058.34;2958285;40;20141;-69
2021/05/22 06:41:17;;;;;;;5.93;4.45;;;;;;;15.29;56.69;95061.53;2958985;40;20420;-70
2021/05/22 06:43:18;;;;;;;9.52;4.63;;;;;;;15.42;56.47;95065.38;2956954;40;20440;-69
2021/05/22 06:45:22;;;;;;;7.22;5.20;;;;;;;15.44;56.10;95060.72;2959080;40;20207;-70
2021/05/22 06:47:24;;;;;;;7.03;4.95;;;;;;;15.47;56.38;95060.38;2957967;40;20063;-71
2021/05/22 06:49:31;;;;;;;6.43;5.05;;;;;;;15.41;57.13;95058.47;2958810;40;20142;-71
2021/05/22 06:51:33;;;;;;;10.15;5.38;;;;;;;15.55;56.96;95058.47;2957924;40;20063;-69
2021/05/22 06:53:34;;;;;;;7.43;4.82;;;;;;;15.72;56.31;95063.59;2958419;40;20049;-70
2021/05/22 06:55:36;;;;;;;8.93;4.88;;;;;;;15.86;55.88;95062.78;2958764;40;20055;-71
2021/05/22 06:57:38;;;;;;;7.25;4.53;;;;;;;15.92;55.49;95059.44;2958442;40;20057;-70
2021/05/22 06:59:40;;;;;;;5.65;4.65;;;;;;;15.85;56.12;95076.19;2958748;40;20064;-71
2021/05/22 07:01:42;;;;;;;7.25;4.53;;;;;;;15.93;55.97;95071.63;2957007;40;20073;-72
2021/05/22 07:03:44;;;;;;;7.97;4.80;;;;;;;15.96;55.92;95075.75;2958615;40;20060;-70
2021/05/22 07:05:46;;;;;;;5.45;4.47;;;;;;;15.96;54.91;95081.03;2957483;40;20180;-70
2021/05/22 07:07:47;;;;;;;8.55;5.03;;;;;;;16.18;55.38;95081.91;2951257;40;20135;-72
2021/05/22 07:09:49;;;;;;;5.80;4.47;;;;;;;16.34;54.82;95086.97;2952500;40;20410;-69
2021/05/22 07:11:52;;;;;;;5.57;4.60;;;;;;;16.41;54.17;95080.97;2958777;40;20101;-71
2021/05/22 07:13:54;;;;;;;6.25;4.45;;;;;;;16.52;54.52;95085.75;2958771;40;20452;-84
2021/05/22 07:15:56;;;;;;;6.72;3.95;;;;;;;16.56;54.18;95084.38;2953982;40;20061;-82
2021/05/22 07:17:58;;;;;;;8.57;4.47;;;;;;;16.68;53.34;95082.91;2955312;40;20073;-83
2021/05/22 07:20:00;;;;;;;7.45;4.30;;;;;;;16.78;53.06;95088.72;2959525;40;20073;-85
2021/05/22 07:22:02;;;;;;;6.32;3.97;;;;;;;16.91;52.52;95090.69;2950931;40;20092;-82
2021/05/22 07:24:04;;;;;;;5.55;4.22;;;;;;;17.01;51.91;95087.72;2957970;40;20057;-81
2021/05/22 07:26:06;;;;;;;5.50;4.25;;;;;;;17.20;51.74;95081.78;2956032;40;20413;-84
2021/05/22 07:28:12;;;;;;;11.43;4.85;;;;;;;17.33;51.57;95082.91;2959524;40;20068;-84
2021/05/22 07:30:16;;;;;;;7.75;4.72;;;;;;;17.46;51.40;95068.97;2956730;40;20070;-85
2021/05/22 07:32:18;;;;;;;;;;;;;;;17.52;50.94;95055.75;2953656;40;20144;-82
2021/05/22 07:34:20;;;;;;;7.72;5.05;;;;;;;17.54;50.50;95042.34;2959355;40;19929;-85
2021/05/22 07:36:21;;;;;;;5.85;4.80;;;;;;;16.86;51.57;95036.69;2961611;40;20396;-82
2021/05/22 07:38:23;;;;;;;7.18;4.65;;;;;;;16.93;51.74;95029.66;2963092;40;20057;-71
2021/05/22 07:40:25;;;;;;;7.15;4.75;;;;;;;16.72;51.84;95022.50;2958136;40;20089;-73
2021/05/22 07:42:27;;;;;;;11.10;4.88;;;;;;;16.30;53.58;95021.44;2951784;40;20081;-69
2021/05/22 07:44:29;;;;;;;20.17;11.40;;;;;;;16.57;54.09;95018.09;2957923;40;20053;-71
2021/05/22 07:46:31;;;;;;;47.15;30.27;;;;;;;16.91;53.93;95013.16;2953962;40;20057;-70
2021/05/22 07:48:34;;;;;;;9.75;7.47;;;;;;;17.06;52.79;95027.13;2959812;40;20176;-71
2021/05/22 07:50:36;;;;;;;9.23;5.63;;;;;;;16.78;52.83;95022.56;2959334;40;20068;-70
2021/05/22 07:52:42;;;;;;;8.30;4.93;;;;;;;16.72;53.54;95018.03;2957844;40;20800;-71
2021/05/22 07:54:47;;;;;;;9.82;5.15;;;;;;;17.02;52.77;95009.97;2953602;40;20303;-71
2021/05/22 07:56:49;;;;;;;9.27;4.68;;;;;;;17.34;50.89;95008.59;2954844;40;20072;-71
2021/05/22 07:58:51;;;;;;;5.75;4.55;;;;;;;17.41;50.56;95008.63;2959572;40;20326;-69
2021/05/22 08:00:53;;;;;;;8.95;4.57;;;;;;;17.44;51.22;95010.88;2957381;40;20068;-72
2021/05/22 08:02:54;;;;;;;6.53;4.55;;;;;;;17.66;50.49;95006.34;2959466;40;20161;-71
2021/05/22 08:04:56;;;;;;;6.10;4.40;;;;;;;17.35;50.32;95012.88;2959514;40;20110;-70
2021/05/22 08:06:58;;;;;;;10.40;5.07;;;;;;;17.55;51.20;95023.59;2958498;40;20469;-70
2021/05/22 08:09:00;;;;;;;11.00;5.05;;;;;;;17.89;50.37;95021.97;2959477;40;20053;-70
2021/05/22 08:11:02;;;;;;;8.20;5.13;;;;;;;18.03;50.53;95027.38;2958723;40;20071;-70
2021/05/22 08:13:05;;;;;;;6.78;4.88;;;;;;;17.93;49.14;95033.81;2959428;40;20086;-71
2021/05/22 08:15:07;;;;;;;5.40;4.80;;;;;;;18.09;49.22;95037.16;2959371;40;20307;-71
2021/05/22 08:17:09;;;;;;;6.47;5.07;;;;;;;18.32;48.53;95032.34;2957623;40;20055;-74
2021/05/22 08:19:12;;;;;;;12.25;8.23;;;;;;;18.60;48.25;95028.75;2958957;40;20057;-71
2021/05/22 08:21:17;;;;;;;13.35;6.05;;;;;;;18.73;47.71;95030.63;2954806;40;20161;-72
2021/05/22 08:23:20;;;;;;;17.27;9.13;;;;;;;18.49;48.09;95022.22;2957771;40;20064;-71
2021/05/22 08:25:22;;;;;;;16.50;8.53;;;;;;;18.28;49.44;95019.69;2954887;40;20137;-74
2021/05/22 08:27:23;;;;;;;14.15;7.20;;;;;;;18.14;48.96;95022.31;2956513;40;20094;-73
2021/05/22 08:29:28;;;;;;;10.90;6.20;;;;;;;17.71;48.90;95013.72;2953405;40;20157;-69
2021/05/22 08:31:32;;;;;;;10.98;5.70;;;;;;;17.58;49.20;95015.25;2956572;40;20445;-71
2021/05/22 08:33:33;;;;;;;13.73;7.25;;;;;;;17.37;49.72;95016.13;2957988;40;20061;-71
2021/05/22 08:35:35;;;;;;;12.68;5.68;;;;;;;17.44;49.82;95012.72;2958706;40;20051;-70
2021/05/22 08:37:37;;;;;;;14.88;8.13;;;;;;;17.50;50.24;95017.25;2954769;40;20063;-70
2021/05/22 08:39:43;;;;;;;9.93;6.45;;;;;;;17.88;50.25;95012.41;2959508;40;20060;-70
2021/05/22 08:41:45;;;;;;;9.15;5.82;;;;;;;18.24;49.77;95008.69;2953837;40;20121;-71
2021/05/22 08:43:48;;;;;;;6.43;4.80;;;;;;;18.50;48.11;95005.28;2956786;40;20084;-70
2021/05/22 08:45:50;;;;;;;21.58;11.60;;;;;;;18.63;47.98;95013.28;2956784;40;20072;-69
2021/05/22 08:47:53;;;;;;;11.02;7.05;;;;;;;18.87;47.41;95007.63;2950204;40;20059;-70
2021/05/22 08:49:55;;;;;;;8.43;5.57;;;;;;;18.82;45.84;95009.03;2959504;40;20384;-71
2021/05/22 08:51:56;;;;;;;15.48;8.15;;;;;;;18.55;47.21;95002.84;2959464;40;20064;-70
2021/05/22 08:53:58;;;;;;;11.65;7.00;;;;;;;18.71;46.64;94998.97;2952311;40;20458;-70
2021/05/22 08:56:00;;;;;;;10.25;5.07;;;;;;;18.89;45.90;95003.75;2951557;40;20331;-70
2021/05/22 08:58:02;;;;;;;11.70;4.30;;;;;;;18.33;46.71;94996.88;2952904;40;20064;-71
2021/05/22 09:00:14;;;;;;;8.77;4.93;;;;;;;18.35;46.36;94996.69;2959120;40;20149;-69
2021/05/22 09:02:19;;;;;;;7.25;4.60;;;;;;;18.65;46.24;94993.66;2957394;40;20057;-71
2021/05/22 09:04:20;;;;;;;4.93;3.60;;;;;;;18.96;45.72;94985.97;2950243;40;20067;-72
2021/05/22 09:06:23;;;;;;;5.85;4.05;;;;;;;18.95;45.13;94986.16;2958743;40;20069;-69
2021/05/22 09:08:25;;;;;;;9.25;4.05;;;;;;;19.20;45.45;94979.22;2957835;40;20305;-71
2021/05/22 09:10:43;;;;;;;6.32;4.22;;;;;;;19.39;44.26;94982.88;2959225;40;20069;-72
2021/05/22 09:12:48;;;;;;;7.60;3.78;;;;;;;19.39;43.46;94979.41;2959032;40;20080;-68
2021/05/22 09:14:51;;;;;;;7.93;3.90;;;;;;;19.16;43.47;94985.16;2954275;40;20097;-71
2021/05/22 09:17:06;;;;;;;7.05;3.65;;;;;;;19.25;43.29;94989.22;2952760;40;20437;-70
2021/05/22 09:19:07;;;;;;;6.53;4.07;;;;;;;19.41;43.18;94986.16;2957954;40;20061;-69
2021/05/22 09:21:11;;;;;;;6.53;4.65;;;;;;;19.37;43.84;94982.28;2959157;40;20060;-71
2021/05/22 09:23:16;;;;;;;8.07;3.72;;;;;;;19.23;43.73;94981.47;2958064;40;20070;-70
2021/05/22 09:25:17;;;;;;;13.25;9.38;;;;;;;19.39;42.64;94974.91;2956409;40;20111;-70
2021/05/22 09:27:22;;;;;;;8.68;4.00;;;;;;;19.56;43.19;94969.97;2957559;40;20115;-71
2021/05/22 09:29:24;;;;;;;8.82;3.97;;;;;;;20.00;43.03;94971.09;2956340;40;20067;-72
2021/05/22 09:31:27;;;;;;;5.28;3.13;;;;;;;20.31;41.96;94969.53;2957343;40;20056;-70
2021/05/22 09:33:31;;;;;;;4.93;3.03;;;;;;;20.29;41.27;94963.59;2958947;40;20395;-71